Time;durP1;ratioP1;P1;durP2;ratioP2;P2;SDS_P1;SDS_P2;PMS_P1;PMS_P2;Temp;Humidity;BMP_temperature;BMP_pressure;BME280_temperature;BME280_humidity;BME280_pressure;Samples;Min_cycle;Max_cycle;Signal;HPM_P1;HPM_P2
2022/11/24 06:00:26;;;;;;;9.20;2.30;;;8.20;97.20;;;;;;1680834;29;20214;-72
2022/11/24 06:01:17;;;;;;;10.18;2.30;;;8.20;97.20;;;;;;1685355;29;20574;-72
2022/11/24 06:02:09;;;;;;;7.13;2.50;;;8.20;97.20;;;;;;1686838;29;20268;-72
2022/11/24 06:03:01;;;;;;;6.82;2.15;;;8.20;97.20;;;;;;1686447;29;20573;-73
2022/11/24 06:03:52;;;;;;;4.75;1.70;;;8.20;97.20;;;;;;1686991;29;20204;-72
2022/11/24 06:04:43;;;;;;;6.22;1.85;;;8.20;97.20;;;;;;1687173;29;20593;-73
2022/11/24 06:05:35;;;;;;;6.77;1.50;;;8.20;97.20;;;;;;1685128;29;20193;-72
2022/11/24 06:06:25;;;;;;;4.78;1.77;;;8.20;97.20;;;;;;1687018;29;20216;-73
2022/11/24 06:07:17;;;;;;;5.67;2.00;;;8.20;97.20;;;;;;1687219;29;20226;-73
2022/11/24 06:08:08;;;;;;;6.03;1.60;;;8.20;97.20;;;;;;1687266;29;20207;-73
2022/11/24 06:08:59;;;;;;;6.30;2.27;;;8.20;97.20;;;;;;1686729;29;20207;-73
2022/11/24 06:09:50;;;;;;;6.18;1.85;;;8.20;97.20;;;;;;1686546;29;20212;-73
2022/11/24 06:10:42;;;;;;;8.50;2.83;;;8.20;97.20;;;;;;1686926;29;20316;-73
2022/11/24 06:11:33;;;;;;;6.65;2.25;;;8.20;97.20;;;;;;1687345;29;20702;-73
2022/11/24 06:12:24;;;;;;;7.50;1.97;;;8.20;97.20;;;;;;1687404;29;20930;-73
2022/11/24 06:13:15;;;;;;;9.30;2.40;;;8.20;97.20;;;;;;1687940;29;20463;-73
2022/11/24 06:14:07;;;;;;;8.70;2.67;;;8.20;97.20;;;;;;1688644;29;20204;-73
2022/11/24 06:14:58;;;;;;;8.90;2.38;;;8.20;97.20;;;;;;1688696;29;20994;-73
2022/11/24 06:15:51;;;;;;;7.40;2.33;;;8.20;97.20;;;;;;1688377;29;20577;-73
2022/11/24 06:16:41;;;;;;;7.38;1.92;;;8.20;97.20;;;;;;1688373;29;20209;-73
2022/11/24 06:17:33;;;;;;;6.90;2.00;;;8.20;97.20;;;;;;1688663;29;20212;-72
2022/11/24 06:18:24;;;;;;;5.10;2.10;;;8.20;97.20;;;;;;1688015;29;20208;-72
2022/11/24 06:19:16;;;;;;;8.00;2.10;;;8.20;97.20;;;;;;1688811;29;20207;-72
2022/11/24 06:20:08;;;;;;;8.60;2.55;;;8.20;97.20;;;;;;1688459;29;20216;-72
2022/11/24 06:21:02;;;;;;;8.23;2.13;;;8.20;97.20;;;;;;1688576;29;20244;-72
2022/11/24 06:21:53;;;;;;;9.50;2.22;;;8.20;97.20;;;;;;1688501;29;20704;-73
2022/11/24 06:22:44;;;;;;;5.10;1.63;;;8.20;97.20;;;;;;1688616;29;20689;-72
2022/11/24 06:23:35;;;;;;;9.95;2.38;;;8.20;97.20;;;;;;1688258;29;20208;-72
2022/11/24 06:24:27;;;;;;;5.23;2.17;;;8.20;97.20;;;;;;1688558;29;20211;-72
2022/11/24 06:25:18;;;;;;;9.77;2.70;;;8.20;97.20;;;;;;1688602;29;20694;-72
2022/11/24 06:26:09;;;;;;;9.63;2.70;;;8.10;97.20;;;;;;1688525;29;20754;-72
2022/11/24 06:27:00;;;;;;;8.65;2.53;;;8.20;97.20;;;;;;1688478;29;20207;-73
2022/11/24 06:27:52;;;;;;;9.20;3.10;;;8.20;97.20;;;;;;1688584;29;20208;-72
2022/11/24 06:28:43;;;;;;;7.57;2.25;;;8.20;97.20;;;;;;1687966;29;20212;-72
2022/11/24 06:29:34;;;;;;;9.00;2.30;;;8.20;97.20;;;;;;1688516;29;20201;-72
2022/11/24 06:30:25;;;;;;;7.38;2.47;;;8.20;97.20;;;;;;1688244;29;20693;-72
2022/11/24 06:31:18;;;;;;;8.80;2.30;;;8.20;97.20;;;;;;1688506;29;20655;-72
2022/11/24 06:32:09;;;;;;;10.50;3.20;;;8.20;97.20;;;;;;1688471;29;20212;-72
2022/11/24 06:33:01;;;;;;;8.57;2.57;;;8.20;97.20;;;;;;1688592;29;20268;-73
2022/11/24 06:33:52;;;;;;;7.85;2.33;;;8.20;97.20;;;;;;1688329;29;20205;-72
2022/11/24 06:34:44;;;;;;;10.53;2.80;;;8.30;97.20;;;;;;1688429;29;20237;-72
2022/11/24 06:35:34;;;;;;;6.25;2.42;;;8.30;97.20;;;;;;1688584;29;20452;-72
2022/11/24 06:36:27;;;;;;;13.47;3.10;;;8.30;97.20;;;;;;1688491;29;20212;-72
2022/11/24 06:37:17;;;;;;;8.98;2.22;;;8.30;97.20;;;;;;1688332;29;20230;-72
2022/11/24 06:38:09;;;;;;;8.60;2.33;;;8.30;97.20;;;;;;1688496;29;20208;-72
2022/11/24 06:39:01;;;;;;;7.03;2.30;;;8.30;97.20;;;;;;1687786;29;20217;-72
2022/11/24 06:39:52;;;;;;;6.30;2.13;;;8.30;97.20;;;;;;1688316;29;20205;-72
2022/11/24 06:40:45;;;;;;;7.47;2.50;;;8.30;97.20;;;;;;1688319;29;20229;-74
2022/11/24 06:41:36;;;;;;;11.93;2.63;;;8.40;97.20;;;;;;1688579;29;20233;-74
2022/11/24 06:42:27;;;;;;;7.40;2.17;;;8.40;97.20;;;;;;1688467;29;20201;-74
2022/11/24 06:43:18;;;;;;;6.85;2.20;;;8.40;97.20;;;;;;1688427;29;20212;-74
2022/11/24 06:44:10;;;;;;;10.20;2.63;;;8.40;97.20;;;;;;1688293;29;20197;-74
2022/11/24 06:45:01;;;;;;;8.48;2.33;;;8.40;97.20;;;;;;1688403;29;20208;-74
2022/11/24 06:45:53;;;;;;;8.67;2.00;;;8.40;97.20;;;;;;1688466;29;20207;-74
2022/11/24 06:46:45;;;;;;;7.68;2.30;;;8.40;97.20;;;;;;1688141;29;20201;-74
2022/11/24 06:47:37;;;;;;;6.50;2.00;;;8.40;97.20;;;;;;1688491;29;20263;-74
2022/11/24 06:48:27;;;;;;;8.60;2.42;;;8.40;97.20;;;;;;1687795;29;20220;-74
2022/11/24 06:49:19;;;;;;;9.00;2.77;;;8.40;97.20;;;;;;1688529;29;20209;-74
2022/11/24 06:50:10;;;;;;;7.93;2.45;;;8.40;97.20;;;;;;1688167;29;20460;-74
2022/11/24 06:51:06;;;;;;;7.07;2.13;;;8.40;97.20;;;;;;1688410;29;20210;-73
2022/11/24 06:51:56;;;;;;;7.53;2.13;;;8.50;97.20;;;;;;1688481;29;20826;-75
2022/11/24 06:52:48;;;;;;;8.60;2.80;;;8.50;97.20;;;;;;1688483;29;20227;-74
2022/11/24 06:53:40;;;;;;;6.80;1.95;;;8.50;97.20;;;;;;1688297;29;20220;-74
2022/11/24 06:54:31;;;;;;;7.50;1.98;;;8.50;97.20;;;;;;1681945;29;20292;-73
2022/11/24 06:55:23;;;;;;;8.95;2.30;;;8.50;97.20;;;;;;1681966;29;20205;-73
2022/11/24 06:56:17;;;;;;;8.35;2.35;;;8.50;97.20;;;;;;1681913;29;20225;-74
2022/11/24 06:57:09;;;;;;;7.70;2.92;;;8.50;97.20;;;;;;1681610;29;20606;-74
2022/11/24 06:58:00;;;;;;;7.10;2.25;;;8.50;97.20;;;;;;1681910;29;20594;-75
2022/11/24 06:58:53;;;;;;;10.43;2.83;;;8.60;97.20;;;;;;1681488;29;20269;-74
2022/11/24 06:59:44;;;;;;;9.50;2.30;;;8.60;97.20;;;;;;1681801;29;20694;-75
2022/11/24 07:00:36;;;;;;;8.10;2.63;;;8.60;97.20;;;;;;1681989;29;20709;-75
2022/11/24 07:01:28;;;;;;;8.95;2.50;;;8.60;97.20;;;;;;1681875;29;20586;-75
2022/11/24 07:02:21;;;;;;;7.68;2.65;;;8.60;97.20;;;;;;1681938;29;20578;-74
2022/11/24 07:03:14;;;;;;;10.32;3.08;;;8.60;97.20;;;;;;1681968;29;20228;-74
2022/11/24 07:04:06;;;;;;;6.03;2.17;;;8.60;97.20;;;;;;1684754;29;20203;-75
2022/11/24 07:04:57;;;;;;;7.35;1.95;;;8.60;97.20;;;;;;1688176;29;20203;-75
2022/11/24 07:05:49;;;;;;;5.87;2.40;;;8.60;97.20;;;;;;1688235;29;20215;-75
2022/11/24 07:06:40;;;;;;;9.05;2.83;;;8.60;97.20;;;;;;1688244;29;20208;-76
2022/11/24 07:07:32;;;;;;;9.95;2.58;;;8.60;97.20;;;;;;1687898;29;20279;-75
2022/11/24 07:08:22;;;;;;;10.57;2.40;;;8.60;97.20;;;;;;1687855;29;20698;-74
2022/11/24 07:09:14;;;;;;;8.63;2.60;;;8.60;97.20;;;;;;1688341;29;20577;-75
2022/11/24 07:10:06;;;;;;;8.60;1.95;;;8.70;97.20;;;;;;1687763;29;20267;-74
2022/11/24 07:11:04;;;;;;;10.02;2.83;;;8.70;97.20;;;;;;1687981;29;20280;-74
2022/11/24 07:11:55;;;;;;;7.13;2.20;;;8.70;97.20;;;;;;1688349;29;20212;-74
2022/11/24 07:12:46;;;;;;;8.38;2.10;;;8.70;97.20;;;;;;1688220;29;20757;-75
2022/11/24 07:13:37;;;;;;;8.20;2.30;;;8.70;97.20;;;;;;1688351;29;20213;-75
2022/11/24 07:14:29;;;;;;;7.55;2.50;;;8.70;97.20;;;;;;1688057;29;20211;-74
2022/11/24 07:15:20;;;;;;;6.90;2.00;;;8.70;97.20;;;;;;1688306;29;20586;-75
2022/11/24 07:16:13;;;;;;;7.03;2.43;;;8.70;97.20;;;;;;1688267;29;20226;-74
2022/11/24 07:17:04;;;;;;;10.95;2.35;;;8.70;97.20;;;;;;1687967;29;20449;-74
2022/11/24 07:17:57;;;;;;;7.70;2.20;;;8.70;97.20;;;;;;1688456;29;20291;-75
2022/11/24 07:18:50;;;;;;;10.45;2.88;;;8.70;97.20;;;;;;1687671;29;20216;-74
2022/11/24 07:19:41;;;;;;;8.43;2.30;;;8.70;97.20;;;;;;1688207;29;20676;-75
2022/11/24 07:20:32;;;;;;;12.52;3.67;;;8.70;97.20;;;;;;1688152;29;20229;-75
2022/11/24 07:21:25;;;;;;;9.57;2.37;;;8.70;97.20;;;;;;1688313;29;20212;-73
2022/11/24 07:22:16;;;;;;;10.13;2.42;;;8.70;97.20;;;;;;1688292;29;20204;-73
2022/11/24 07:23:09;;;;;;;8.10;2.97;;;8.70;97.20;;;;;;1688250;29;20208;-73
2022/11/24 07:24:00;;;;;;;9.02;2.20;;;8.70;97.20;;;;;;1687711;29;20445;-72
2022/11/24 07:24:52;;;;;;;8.63;2.20;;;8.70;97.20;;;;;;1688161;29;20220;-73
2022/11/24 07:25:42;;;;;;;7.72;2.67;;;8.80;97.20;;;;;;1688291;29;20452;-73
2022/11/24 07:26:36;;;;;;;6.47;2.20;;;8.80;97.20;;;;;;1688153;29;20219;-73
2022/11/24 07:27:26;;;;;;;7.65;2.63;;;8.80;97.20;;;;;;1688103;29;20448;-73
2022/11/24 07:28:18;;;;;;;8.60;2.80;;;8.80;97.20;;;;;;1688241;29;20240;-73
2022/11/24 07:29:09;;;;;;;7.05;2.78;;;8.80;97.20;;;;;;1687780;29;20215;-73
2022/11/24 07:30:01;;;;;;;8.00;2.50;;;8.80;97.20;;;;;;1688068;29;20200;-73
2022/11/24 07:30:51;;;;;;;13.05;2.75;;;8.80;97.20;;;;;;1687985;29;20710;-73
2022/11/24 07:31:44;;;;;;;9.53;2.67;;;8.80;97.20;;;;;;1688344;29;20715;-72
2022/11/24 07:32:35;;;;;;;8.32;2.60;;;8.80;97.20;;;;;;1688237;29;20217;-73
2022/11/24 07:33:28;;;;;;;14.33;3.20;;;8.80;97.20;;;;;;1688182;29;20287;-73
2022/11/24 07:34:19;;;;;;;14.73;2.75;;;8.80;97.20;;;;;;1687883;29;20204;-73
2022/11/24 07:35:10;;;;;;;11.30;2.50;;;8.90;97.20;;;;;;1687382;29;20238;-73
2022/11/24 07:36:03;;;;;;;6.95;2.55;;;8.90;97.20;;;;;;1687498;29;20690;-73
2022/11/24 07:36:54;;;;;;;8.27;2.80;;;8.90;97.20;;;;;;1687890;29;20205;-73
2022/11/24 07:37:45;;;;;;;9.43;2.95;;;8.90;97.20;;;;;;1688046;29;20208;-73
2022/11/24 07:38:37;;;;;;;12.23;3.17;;;8.90;97.20;;;;;;1687681;29;20204;-73
2022/11/24 07:39:28;;;;;;;12.18;2.97;;;8.90;97.20;;;;;;1688038;29;20221;-73
2022/11/24 07:40:19;;;;;;;7.47;2.35;;;8.90;97.20;;;;;;1688001;29;20224;-73
2022/11/24 07:41:14;;;;;;;13.40;2.87;;;8.90;97.20;;;;;;1688068;29;20283;-73
2022/11/24 07:42:07;;;;;;;7.95;3.20;;;8.90;97.20;;;;;;1687874;29;20231;-73
2022/11/24 07:43:01;;;;;;;9.82;2.90;;;8.90;97.20;;;;;;1688053;29;20568;-73
2022/11/24 07:43:51;;;;;;;9.82;2.72;;;8.90;97.20;;;;;;1687874;29;20228;-73
2022/11/24 07:44:43;;;;;;;12.10;2.50;;;8.90;97.20;;;;;;1688130;29;20228;-75
2022/11/24 07:45:34;;;;;;;13.35;2.78;;;8.90;97.20;;;;;;1688137;29;20227;-75
2022/11/24 07:46:26;;;;;;;5.10;2.37;;;8.90;97.20;;;;;;1688118;29;20210;-74
2022/11/24 07:47:16;;;;;;;7.75;2.50;;;8.90;97.20;;;;;;1687933;29;20212;-74
2022/11/24 07:48:09;;;;;;;9.20;2.70;;;8.90;97.20;;;;;;1688034;29;20209;-75
2022/11/24 07:49:01;;;;;;;14.02;2.97;;;8.90;97.20;;;;;;1687607;29;20214;-74
2022/11/24 07:49:52;;;;;;;14.60;3.00;;;8.90;97.20;;;;;;1688003;29;20208;-74
2022/11/24 07:50:43;;;;;;;10.88;2.58;;;8.90;97.20;;;;;;1688014;29;20243;-74
2022/11/24 07:51:35;;;;;;;8.10;2.60;;;8.90;97.20;;;;;;1688061;29;20291;-75
2022/11/24 07:52:26;;;;;;;8.75;2.35;;;8.90;97.20;;;;;;1688008;29;20692;-74
2022/11/24 07:53:18;;;;;;;9.03;2.50;;;8.90;97.20;;;;;;1688121;29;20663;-74
2022/11/24 07:54:10;;;;;;;11.07;2.72;;;9.00;97.20;;;;;;1687823;29;20201;-74
2022/11/24 07:55:01;;;;;;;5.25;2.35;;;9.00;97.20;;;;;;1687982;29;20228;-75
2022/11/24 07:55:54;;;;;;;12.70;2.77;;;9.00;97.20;;;;;;1687956;29;20201;-75
2022/11/24 07:56:47;;;;;;;7.80;2.50;;;9.00;97.20;;;;;;1687847;29;20263;-75
2022/11/24 07:57:39;;;;;;;9.50;2.53;;;9.00;97.20;;;;;;1688114;29;20707;-75
2022/11/24 07:58:32;;;;;;;7.97;2.67;;;9.00;97.20;;;;;;1687520;29;20674;-75
2022/11/24 07:59:23;;;;;;;7.68;2.45;;;9.00;97.20;;;;;;1688027;29;20208;-72
2022/11/24 08:00:15;;;;;;;10.00;3.50;;;9.00;97.20;;;;;;1687518;29;20232;-73
2022/11/24 08:01:11;;;;;;;8.88;2.72;;;8.90;97.20;;;;;;1687944;29;20264;-73
2022/11/24 08:02:02;;;;;;;11.18;2.50;;;8.90;97.20;;;;;;1687892;29;20204;-72
2022/11/24 08:02:54;;;;;;;9.20;2.60;;;8.90;97.20;;;;;;1688109;29;20228;-73
2022/11/24 08:03:45;;;;;;;8.93;2.80;;;8.90;97.20;;;;;;1688010;29;20334;-73
2022/11/24 08:04:38;;;;;;;6.95;2.03;;;8.90;97.20;;;;;;1687949;29;20200;-73
2022/11/24 08:05:29;;;;;;;12.13;2.95;;;8.90;97.20;;;;;;1687894;29;20212;-73
2022/11/24 08:06:21;;;;;;;7.10;2.45;;;8.90;97.20;;;;;;1687921;29;20252;-73
2022/11/24 08:07:12;;;;;;;7.53;2.80;;;8.90;97.20;;;;;;1687769;29;20589;-73
2022/11/24 08:08:04;;;;;;;8.60;2.87;;;8.90;97.20;;;;;;1688139;29;20816;-73
2022/11/24 08:08:56;;;;;;;8.45;2.60;;;8.90;97.20;;;;;;1687479;29;20220;-73
2022/11/24 08:09:47;;;;;;;10.32;3.65;;;8.90;97.20;;;;;;1687760;29;20630;-73
2022/11/24 08:10:38;;;;;;;11.55;2.72;;;8.90;97.20;;;;;;1687695;29;20303;-72
2022/11/24 08:11:30;;;;;;;8.88;3.50;;;8.90;97.20;;;;;;1687883;29;20702;-72
2022/11/24 08:12:22;;;;;;;9.95;3.70;;;8.90;97.20;;;;;;1687939;29;20205;-73
2022/11/24 08:13:12;;;;;;;9.55;3.40;;;8.90;97.20;;;;;;1688040;29;20220;-73
2022/11/24 08:14:04;;;;;;;10.10;3.73;;;8.90;97.20;;;;;;1687953;29;20283;-72
2022/11/24 08:14:55;;;;;;;8.65;3.60;;;8.90;97.20;;;;;;1687912;29;20215;-72
2022/11/24 08:15:47;;;;;;;10.93;3.90;;;8.90;97.20;;;;;;1688125;29;20587;-73
2022/11/24 08:16:38;;;;;;;11.18;3.25;;;8.90;97.20;;;;;;1687770;29;20212;-73
2022/11/24 08:17:30;;;;;;;13.48;3.50;;;8.90;97.20;;;;;;1687894;29;20205;-73
2022/11/24 08:18:23;;;;;;;12.00;3.78;;;8.90;97.20;;;;;;1687912;29;20251;-73
2022/11/24 08:19:14;;;;;;;8.13;3.22;;;8.90;97.20;;;;;;1687895;29;20295;-73
2022/11/24 08:20:09;;;;;;;11.90;3.90;;;8.90;97.20;;;;;;1687743;29;20686;-73
2022/11/24 08:21:01;;;;;;;11.73;3.35;;;8.90;97.20;;;;;;1687748;29;20223;-73
2022/11/24 08:21:52;;;;;;;13.45;3.40;;;8.90;97.20;;;;;;1687764;29;20204;-73
2022/11/24 08:22:43;;;;;;;9.13;3.10;;;8.90;97.20;;;;;;1687835;29;20694;-73
2022/11/24 08:23:35;;;;;;;14.33;2.83;;;8.90;97.20;;;;;;1687975;29;20791;-73
2022/11/24 08:24:26;;;;;;;7.80;3.15;;;8.90;97.20;;;;;;1687804;29;20448;-73
2022/11/24 08:25:18;;;;;;;9.30;2.80;;;8.90;97.20;;;;;;1687911;29;20201;-73
2022/11/24 08:26:12;;;;;;;11.75;3.95;;;8.90;97.20;;;;;;1687744;29;20830;-73
2022/11/24 08:27:04;;;;;;;10.52;3.30;;;8.90;97.20;;;;;;1687663;29;20264;-73
2022/11/24 08:27:55;;;;;;;8.32;2.85;;;8.90;97.20;;;;;;1687791;29;20235;-73
2022/11/24 08:28:47;;;;;;;7.40;2.70;;;8.90;97.20;;;;;;1687275;29;20218;-73
2022/11/24 08:29:38;;;;;;;9.95;3.13;;;8.90;97.20;;;;;;1687785;29;20211;-73
2022/11/24 08:30:30;;;;;;;8.67;2.57;;;8.90;97.20;;;;;;1687149;29;20200;-73
2022/11/24 08:31:21;;;;;;;8.90;2.85;;;8.90;97.20;;;;;;1687871;29;20442;-73
2022/11/24 08:32:13;;;;;;;8.30;2.77;;;8.90;97.20;;;;;;1687729;29;20201;-73
2022/11/24 08:33:04;;;;;;;6.97;2.95;;;8.90;97.20;;;;;;1687797;29;20227;-73
2022/11/24 08:33:56;;;;;;;7.60;2.50;;;8.90;97.20;;;;;;1687711;29;20208;-73
2022/11/24 08:34:48;;;;;;;9.00;2.58;;;8.90;97.20;;;;;;1687706;29;20215;-73
2022/11/24 08:35:40;;;;;;;7.07;2.60;;;8.90;97.20;;;;;;1687359;29;20236;-73
2022/11/24 08:36:33;;;;;;;7.75;2.60;;;8.80;97.20;;;;;;1687663;29;20251;-73
2022/11/24 08:37:25;;;;;;;10.70;2.95;;;8.80;97.20;;;;;;1687598;29;20215;-72
2022/11/24 08:38:16;;;;;;;9.98;2.70;;;8.80;97.20;;;;;;1687910;29;20339;-73
2022/11/24 08:39:10;;;;;;;7.63;2.50;;;8.90;97.20;;;;;;1687145;29;20212;-73
2022/11/24 08:40:02;;;;;;;9.27;2.60;;;8.80;97.20;;;;;;1687575;29;20287;-73
2022/11/24 08:40:54;;;;;;;9.57;2.78;;;8.80;97.20;;;;;;1687449;29;20588;-73
2022/11/24 08:41:45;;;;;;;5.55;2.50;;;8.90;97.20;;;;;;1687647;29;20212;-73
2022/11/24 08:42:36;;;;;;;10.05;3.63;;;8.90;97.20;;;;;;1687803;29;20205;-73
2022/11/24 08:43:27;;;;;;;8.98;3.10;;;8.90;97.20;;;;;;1687630;29;20211;-73
2022/11/24 08:44:19;;;;;;;6.03;3.23;;;8.90;97.20;;;;;;1687676;29;20208;-73
2022/11/24 08:45:10;;;;;;;10.18;2.90;;;8.90;97.20;;;;;;1687729;29;20819;-73
2022/11/24 08:46:03;;;;;;;7.78;2.95;;;8.90;97.20;;;;;;1687657;29;20229;-73
2022/11/24 08:46:54;;;;;;;6.82;2.58;;;8.90;97.20;;;;;;1687620;29;20499;-73
2022/11/24 08:47:51;;;;;;;7.63;2.70;;;8.90;97.20;;;;;;1687813;29;20560;-73
2022/11/24 08:48:42;;;;;;;5.78;2.47;;;8.90;97.20;;;;;;1687172;29;20248;-72
2022/11/24 08:49:34;;;;;;;5.65;2.55;;;8.90;97.20;;;;;;1687726;29;20690;-73
2022/11/24 08:50:25;;;;;;;8.25;2.00;;;8.90;97.20;;;;;;1687267;29;20212;-73
2022/11/24 08:51:20;;;;;;;13.13;2.90;;;8.90;97.20;;;;;;1687709;29;20285;-73
2022/11/24 08:52:11;;;;;;;7.10;2.35;;;8.90;97.20;;;;;;1687771;29;20456;-73
2022/11/24 08:53:02;;;;;;;7.87;2.40;;;8.90;97.20;;;;;;1687677;29;20291;-73
2022/11/24 08:53:55;;;;;;;5.22;1.65;;;8.90;97.20;;;;;;1687724;29;20201;-73
2022/11/24 08:54:46;;;;;;;7.97;2.17;;;8.90;97.20;;;;;;1687619;29;20208;-73
2022/11/24 08:55:37;;;;;;;6.20;2.35;;;8.90;97.20;;;;;;1687584;29;20229;-73
2022/11/24 08:56:31;;;;;;;5.50;2.37;;;8.90;97.20;;;;;;1687618;29;20208;-73
2022/11/24 08:57:22;;;;;;;6.38;1.92;;;9.00;97.20;;;;;;1687616;29;20706;-73
2022/11/24 08:58:13;;;;;;;5.87;2.47;;;9.00;97.20;;;;;;1687632;29;20569;-72
2022/11/24 08:59:04;;;;;;;6.45;2.70;;;9.00;97.20;;;;;;1686956;29;20220;-73
2022/11/24 08:59:56;;;;;;;5.53;2.03;;;9.00;97.20;;;;;;1687548;29;20204;-73
2022/11/24 09:00:46;;;;;;;7.68;2.60;;;9.00;97.20;;;;;;1687212;29;20217;-72
2022/11/24 09:01:38;;;;;;;3.70;1.83;;;9.00;97.20;;;;;;1687744;29;20212;-73
2022/11/24 09:02:29;;;;;;;4.40;1.83;;;9.00;97.20;;;;;;1687548;29;20216;-73
2022/11/24 09:03:21;;;;;;;5.07;1.83;;;9.00;97.20;;;;;;1687662;29;20208;-73
2022/11/24 09:04:11;;;;;;;3.00;1.80;;;9.00;97.20;;;;;;1687577;29;20208;-72
2022/11/24 09:05:03;;;;;;;4.20;1.57;;;9.10;97.20;;;;;;1687594;29;20219;-73
2022/11/24 09:05:54;;;;;;;5.80;1.60;;;9.10;97.20;;;;;;1687632;29;20216;-73
2022/11/24 09:06:47;;;;;;;4.50;1.67;;;9.10;97.20;;;;;;1687464;29;20219;-73
2022/11/24 09:07:38;;;;;;;3.63;1.60;;;9.10;97.20;;;;;;1687755;29;20204;-73
2022/11/24 09:08:30;;;;;;;5.27;1.80;;;9.10;97.20;;;;;;1687030;29;20208;-73
2022/11/24 09:09:21;;;;;;;3.35;1.48;;;9.10;97.20;;;;;;1687658;29;20204;-73
2022/11/24 09:10:12;;;;;;;4.10;1.25;;;9.20;97.20;;;;;;1687391;29;20219;-73
2022/11/24 09:11:06;;;;;;;4.97;1.90;;;9.20;97.20;;;;;;1687359;29;20283;-73
2022/11/24 09:11:58;;;;;;;4.88;1.70;;;9.20;97.20;;;;;;1687585;29;20445;-73
2022/11/24 09:12:50;;;;;;;6.38;2.20;;;9.20;97.20;;;;;;1687580;29;20579;-73
2022/11/24 09:13:43;;;;;;;5.80;2.50;;;9.30;97.20;;;;;;1687474;29;20215;-73
2022/11/24 09:14:34;;;;;;;5.82;2.80;;;9.30;97.20;;;;;;1687623;29;20212;-73
2022/11/24 09:15:25;;;;;;;7.63;2.70;;;9.30;97.20;;;;;;1687428;29;20219;-73
2022/11/24 09:16:19;;;;;;;4.43;2.10;;;9.30;97.20;;;;;;1687630;29;20210;-73
2022/11/24 09:17:09;;;;;;;6.38;2.63;;;9.30;97.20;;;;;;1687263;29;20211;-73
2022/11/24 09:18:01;;;;;;;5.93;3.00;;;9.30;97.20;;;;;;1687525;29;20207;-73
2022/11/24 09:18:57;;;;;;;6.10;3.40;;;9.40;97.20;;;;;;1687144;29;20672;-73
2022/11/24 09:19:48;;;;;;;4.85;3.03;;;9.40;97.20;;;;;;1687343;29;20208;-73
2022/11/24 09:20:40;;;;;;;7.63;3.40;;;9.40;97.20;;;;;;1687238;29;20713;-73
2022/11/24 09:21:36;;;;;;;4.65;3.05;;;9.40;97.20;;;;;;1687368;29;20255;-73
2022/11/24 09:22:29;;;;;;;5.47;2.65;;;9.40;97.20;;;;;;1687345;29;20328;-73
2022/11/24 09:23:20;;;;;;;5.88;3.10;;;9.30;97.20;;;;;;1687619;29;20315;-73
2022/11/24 09:24:11;;;;;;;3.08;1.60;;;9.40;97.20;;;;;;1687497;29;20236;-73
2022/11/24 09:25:03;;;;;;;3.90;2.30;;;9.40;97.20;;;;;;1687554;29;20212;-73
2022/11/24 09:25:54;;;;;;;6.57;3.22;;;9.40;97.20;;;;;;1687602;29;20201;-73
2022/11/24 09:26:46;;;;;;;5.07;3.20;;;9.40;97.20;;;;;;1687366;29;20216;-73
2022/11/24 09:27:37;;;;;;;8.30;3.55;;;9.40;97.20;;;;;;1687589;29;20224;-73
2022/11/24 09:28:28;;;;;;;6.73;4.30;;;9.40;97.20;;;;;;1686925;29;20220;-73
2022/11/24 09:29:19;;;;;;;6.20;4.10;;;9.40;97.20;;;;;;1687484;29;20599;-73
2022/11/24 09:30:12;;;;;;;6.33;4.00;;;9.40;97.20;;;;;;1687346;29;20200;-73
2022/11/24 09:31:06;;;;;;;4.93;2.47;;;9.40;97.20;;;;;;1687364;29;20667;-73
2022/11/24 09:31:56;;;;;;;4.15;2.50;;;9.40;97.20;;;;;;1687475;29;20205;-72
2022/11/24 09:32:48;;;;;;;3.50;1.57;;;9.40;97.20;;;;;;1687505;29;20212;-73
2022/11/24 09:33:39;;;;;;;3.95;1.50;;;9.40;97.20;;;;;;1687482;29;20212;-73
2022/11/24 09:34:31;;;;;;;3.28;1.33;;;9.30;97.20;;;;;;1687607;29;20208;-74
2022/11/24 09:35:22;;;;;;;2.67;1.30;;;9.30;97.20;;;;;;1687493;29;20212;-73
2022/11/24 09:36:14;;;;;;;5.00;1.53;;;9.30;97.20;;;;;;1687472;29;20291;-72
2022/11/24 09:37:05;;;;;;;2.70;1.27;;;9.30;97.20;;;;;;1687343;29;20456;-73
2022/11/24 09:37:58;;;;;;;2.80;1.30;;;9.30;97.20;;;;;;1687468;29;20234;-73
2022/11/24 09:38:49;;;;;;;2.63;0.98;;;9.40;97.20;;;;;;1686832;29;20452;-73
2022/11/24 09:39:40;;;;;;;1.87;0.87;;;9.40;97.20;;;;;;1687470;29;20204;-73
2022/11/24 09:40:33;;;;;;;3.20;1.80;;;9.40;97.20;;;;;;1686939;29;20251;-73
2022/11/24 09:41:37;;;;;;;2.30;0.82;;;9.40;97.20;;;;;;1687511;29;20524;-73
2022/11/24 09:42:37;;;;;;;2.00;0.90;;;9.40;97.20;;;;;;1687453;29;20246;-73
2022/11/24 09:43:35;;;;;;;1.55;1.30;;;9.40;97.20;;;;;;1687377;29;20209;-73
2022/11/24 09:44:59;;;;;;;1.48;1.00;;;9.40;97.20;;;;;;1687631;29;20193;-73
2022/11/24 09:46:00;;;;;;;3.25;1.17;;;9.40;97.20;;;;;;1682774;29;20204;-73
2022/11/24 09:46:59;;;;;;;1.35;0.80;;;9.50;97.20;;;;;;1687206;29;20233;-73
2022/11/24 09:48:02;;;;;;;1.55;0.75;;;9.50;97.20;;;;;;1688815;29;20210;-73
2022/11/24 09:48:57;;;;;;;1.25;0.80;;;9.50;97.20;;;;;;1688287;29;20302;-73
2022/11/24 09:49:53;;;;;;;5.22;0.80;;;9.50;97.20;;;;;;1688552;29;20585;-73
2022/11/24 09:50:48;;;;;;;4.35;1.20;;;9.50;97.20;;;;;;1688456;29;20284;-73
2022/11/24 09:51:44;;;;;;;1.00;0.80;;;9.50;97.20;;;;;;1688822;29;20301;-73
2022/11/24 09:52:40;;;;;;;1.73;0.80;;;9.50;97.20;;;;;;1688841;29;20213;-73
2022/11/24 09:53:37;;;;;;;3.10;0.73;;;9.40;97.20;;;;;;1688761;29;20272;-73
2022/11/24 09:54:29;;;;;;;2.03;0.80;;;9.40;97.20;;;;;;1688897;29;20197;-73
2022/11/24 09:55:31;;;;;;;3.25;1.10;;;9.50;97.20;;;;;;1688830;29;20552;-73
2022/11/24 09:56:26;;;;;;;1.85;1.00;;;9.50;97.20;;;;;;1688833;29;20224;-73
2022/11/24 09:57:20;;;;;;;1.35;0.70;;;9.50;97.20;;;;;;1688679;29;20220;-72
2022/11/24 09:58:32;;;;;;;2.92;0.98;;;9.50;97.20;;;;;;1688749;29;20208;-73
2022/11/24 09:59:25;;;;;;;5.93;1.25;;;9.60;97.20;;;;;;1688763;29;20224;-72
2022/11/24 10:00:17;;;;;;;2.15;1.50;;;9.60;97.20;;;;;;1688552;29;20204;-73
2022/11/24 10:01:16;;;;;;;3.00;1.70;;;9.60;97.20;;;;;;1688353;29;20196;-73
2022/11/24 10:02:10;;;;;;;2.35;1.75;;;9.70;97.20;;;;;;1688683;29;20204;-73
2022/11/24 10:03:02;;;;;;;2.42;1.48;;;9.70;97.20;;;;;;1688535;29;20196;-73
2022/11/24 10:03:55;;;;;;;1.70;1.13;;;9.70;97.20;;;;;;1688693;29;20216;-73
2022/11/24 10:04:46;;;;;;;1.73;0.90;;;9.80;97.20;;;;;;1688800;29;20215;-73
2022/11/24 10:05:37;;;;;;;2.28;1.15;;;9.80;97.20;;;;;;1688717;29;20589;-72
2022/11/24 10:06:33;;;;;;;1.70;0.90;;;9.80;97.20;;;;;;1688660;29;20584;-73
2022/11/24 10:07:29;;;;;;;1.10;0.70;;;9.80;97.20;;;;;;1688561;29;20595;-73
2022/11/24 10:08:36;;;;;;;0.85;0.63;;;9.80;97.20;;;;;;1688734;29;20211;-73
2022/11/24 10:09:48;;;;;;;1.17;0.80;;;9.80;97.20;;;;;;1688593;29;20201;-73
2022/11/24 10:10:50;;;;;;;1.65;0.70;;;9.80;97.20;;;;;;1688360;29;20630;-72
2022/11/24 10:11:46;;;;;;;1.10;0.63;;;9.70;97.20;;;;;;1688452;29;20212;-73
2022/11/24 10:12:49;;;;;;;1.05;0.60;;;9.70;97.20;;;;;;1688406;29;20212;-73
2022/11/24 10:14:02;;;;;;;1.10;0.82;;;9.70;97.20;;;;;;1688523;29;20208;-73
2022/11/24 10:15:06;;;;;;;1.55;0.82;;;9.70;97.20;;;;;;1688766;29;20193;-73
2022/11/24 10:16:06;;;;;;;1.10;0.60;;;9.60;97.20;;;;;;1688632;29;20216;-73
2022/11/24 10:17:09;;;;;;;1.10;0.70;;;9.60;97.20;;;;;;1688492;29;20279;-73
2022/11/24 10:18:16;;;;;;;1.15;0.65;;;9.60;97.20;;;;;;1688673;29;20292;-73
2022/11/24 10:19:20;;;;;;;0.90;0.70;;;9.60;97.20;;;;;;1687999;29;20209;-73
2022/11/24 10:20:21;;;;;;;1.30;0.80;;;9.60;97.20;;;;;;1688562;29;20205;-72
2022/11/24 10:21:30;;;;;;;2.08;0.90;;;9.60;97.20;;;;;;1688316;29;20204;-72
2022/11/24 10:22:33;;;;;;;0.90;0.70;;;9.60;97.20;;;;;;1688641;29;20223;-73
2022/11/24 10:23:41;;;;;;;1.95;0.80;;;9.70;97.20;;;;;;1688585;29;20215;-73
2022/11/24 10:24:51;;;;;;;1.65;0.70;;;9.80;97.20;;;;;;1688607;29;20212;-73
2022/11/24 10:25:48;;;;;;;0.80;0.70;;;9.90;97.20;;;;;;1688647;29;20197;-73
2022/11/24 10:26:43;;;;;;;1.00;0.60;;;10.00;97.20;;;;;;1688440;29;20703;-73
2022/11/24 10:27:38;;;;;;;5.50;0.80;;;10.10;97.20;;;;;;1688692;29;20209;-73
2022/11/24 10:28:38;;;;;;;1.05;0.60;;;10.20;97.20;;;;;;1688101;29;20200;-73
2022/11/24 10:29:35;;;;;;;1.08;0.63;;;10.20;97.20;;;;;;1688450;29;20212;-72
2022/11/24 10:30:27;;;;;;;3.30;0.95;;;10.30;97.20;;;;;;1688403;29;20216;-73
2022/11/24 10:31:24;;;;;;;1.45;0.75;;;10.40;97.20;;;;;;1688485;29;20231;-73
2022/11/24 10:32:18;;;;;;;1.45;0.88;;;10.50;97.20;;;;;;1688555;29;20215;-73
2022/11/24 10:33:16;;;;;;;0.88;0.68;;;10.70;97.20;;;;;;1688477;29;20205;-73
2022/11/24 10:34:13;;;;;;;0.80;0.60;;;10.80;97.20;;;;;;1688433;29;20264;-73
2022/11/24 10:35:16;;;;;;;1.25;0.40;;;11.00;97.20;;;;;;1688455;29;20300;-73
2022/11/24 10:36:13;;;;;;;0.90;0.70;;;11.10;97.20;;;;;;1688377;29;20303;-73
2022/11/24 10:37:13;;;;;;;1.13;0.60;;;11.30;97.20;;;;;;1688359;29;20185;-73
2022/11/24 10:38:14;;;;;;;2.45;0.75;;;11.50;97.20;;;;;;1688456;29;20209;-72
2022/11/24 10:39:15;;;;;;;1.35;0.77;;;11.60;97.20;;;;;;1688009;29;20213;-73
2022/11/24 10:40:11;;;;;;;0.77;0.57;;;11.80;97.20;;;;;;1688435;29;20577;-73